sensor_id;sensor_type;location;lat;lon;timestamp;P1;durP1;ratioP1;P2;durP2;ratioP2
35606;SDS011;21729;58.392;15.656;2022-09-11T00:02:17;8.35;;;5.50;;
35606;SDS011;21729;58.392;15.656;2022-09-11T00:04:45;6.37;;;5.07;;
35606;SDS011;21729;58.392;15.656;2022-09-11T00:07:14;7.00;;;5.03;;
35606;SDS011;21729;58.392;15.656;2022-09-11T00:09:41;7.22;;;5.25;;
35606;SDS011;21729;58.392;15.656;2022-09-11T00:12:09;7.28;;;5.30;;
35606;SDS011;21729;58.392;15.656;2022-09-11T00:14:36;8.73;;;5.50;;
35606;SDS011;21729;58.392;15.656;2022-09-11T00:17:04;9.68;;;5.15;;
35606;SDS011;21729;58.392;15.656;2022-09-11T00:19:31;8.25;;;5.25;;
35606;SDS011;21729;58.392;15.656;2022-09-11T00:22:00;7.82;;;5.30;;
35606;SDS011;21729;58.392;15.656;2022-09-11T00:24:28;8.75;;;5.25;;
35606;SDS011;21729;58.392;15.656;2022-09-11T00:26:56;7.15;;;5.10;;
35606;SDS011;21729;58.392;15.656;2022-09-11T00:29:23;8.60;;;5.60;;
35606;SDS011;21729;58.392;15.656;2022-09-11T00:31:50;6.03;;;4.70;;
35606;SDS011;21729;58.392;15.656;2022-09-11T00:34:18;7.70;;;5.43;;
35606;SDS011;21729;58.392;15.656;2022-09-11T00:36:45;6.88;;;5.07;;
35606;SDS011;21729;58.392;15.656;2022-09-11T00:39:12;6.22;;;5.00;;
35606;SDS011;21729;58.392;15.656;2022-09-11T00:41:42;6.50;;;5.20;;
35606;SDS011;21729;58.392;15.656;2022-09-11T00:47:15;9.85;;;5.45;;
35606;SDS011;21729;58.392;15.656;2022-09-11T00:49:44;7.10;;;5.10;;
35606;SDS011;21729;58.392;15.656;2022-09-11T00:52:17;9.40;;;5.30;;
35606;SDS011;21729;58.392;15.656;2022-09-11T00:54:49;8.25;;;5.22;;
35606;SDS011;21729;58.392;15.656;2022-09-11T00:57:22;8.77;;;5.47;;
35606;SDS011;21729;58.392;15.656;2022-09-11T00:59:53;6.78;;;5.50;;
35606;SDS011;21729;58.392;15.656;2022-09-11T01:02:22;6.95;;;5.43;;
35606;SDS011;21729;58.392;15.656;2022-09-11T01:04:52;8.00;;;5.60;;
35606;SDS011;21729;58.392;15.656;2022-09-11T01:07:19;6.05;;;5.05;;
35606;SDS011;21729;58.392;15.656;2022-09-11T01:09:48;6.15;;;5.38;;
35606;SDS011;21729;58.392;15.656;2022-09-11T01:12:16;6.75;;;5.68;;
35606;SDS011;21729;58.392;15.656;2022-09-11T01:14:51;7.88;;;5.35;;
35606;SDS011;21729;58.392;15.656;2022-09-11T01:17:24;9.35;;;5.40;;
35606;SDS011;21729;58.392;15.656;2022-09-11T01:22:54;8.80;;;5.10;;
35606;SDS011;21729;58.392;15.656;2022-09-11T01:25:45;7.28;;;5.38;;
35606;SDS011;21729;58.392;15.656;2022-09-11T01:28:28;7.70;;;5.13;;
35606;SDS011;21729;58.392;15.656;2022-09-11T01:31:02;7.72;;;5.28;;
35606;SDS011;21729;58.392;15.656;2022-09-11T01:33:34;7.47;;;5.53;;
35606;SDS011;21729;58.392;15.656;2022-09-11T01:36:09;10.32;;;5.82;;
35606;SDS011;21729;58.392;15.656;2022-09-11T01:38:44;7.45;;;5.65;;
35606;SDS011;21729;58.392;15.656;2022-09-11T01:41:16;8.47;;;5.90;;
35606;SDS011;21729;58.392;15.656;2022-09-11T01:43:49;10.87;;;6.00;;
35606;SDS011;21729;58.392;15.656;2022-09-11T01:46:20;7.38;;;5.22;;
35606;SDS011;21729;58.392;15.656;2022-09-11T01:48:52;6.37;;;5.40;;
35606;SDS011;21729;58.392;15.656;2022-09-11T01:51:25;8.67;;;5.50;;
35606;SDS011;21729;58.392;15.656;2022-09-11T01:53:56;9.25;;;5.60;;
35606;SDS011;21729;58.392;15.656;2022-09-11T01:56:25;9.02;;;5.75;;
35606;SDS011;21729;58.392;15.656;2022-09-11T01:59:00;7.22;;;5.50;;
35606;SDS011;21729;58.392;15.656;2022-09-11T02:01:31;6.20;;;5.50;;
35606;SDS011;21729;58.392;15.656;2022-09-11T02:04:02;6.97;;;5.57;;
35606;SDS011;21729;58.392;15.656;2022-09-11T02:06:35;8.27;;;5.55;;
35606;SDS011;21729;58.392;15.656;2022-09-11T02:09:08;6.65;;;5.38;;
35606;SDS011;21729;58.392;15.656;2022-09-11T02:11:39;7.95;;;5.25;;
35606;SDS011;21729;58.392;15.656;2022-09-11T02:14:16;6.80;;;5.22;;
35606;SDS011;21729;58.392;15.656;2022-09-11T02:16:47;6.72;;;5.20;;
35606;SDS011;21729;58.392;15.656;2022-09-11T02:19:16;10.30;;;5.60;;
35606;SDS011;21729;58.392;15.656;2022-09-11T02:21:45;6.45;;;5.40;;
35606;SDS011;21729;58.392;15.656;2022-09-11T02:24:13;7.70;;;5.43;;
35606;SDS011;21729;58.392;15.656;2022-09-11T02:26:41;8.52;;;5.38;;
35606;SDS011;21729;58.392;15.656;2022-09-11T02:29:13;6.68;;;5.70;;
35606;SDS011;21729;58.392;15.656;2022-09-11T02:31:41;10.02;;;5.63;;
35606;SDS011;21729;58.392;15.656;2022-09-11T02:34:09;8.73;;;5.00;;
35606;SDS011;21729;58.392;15.656;2022-09-11T02:36:44;13.90;;;4.88;;
35606;SDS011;21729;58.392;15.656;2022-09-11T02:39:25;7.88;;;4.90;;
35606;SDS011;21729;58.392;15.656;2022-09-11T02:42:17;7.22;;;5.20;;
35606;SDS011;21729;58.392;15.656;2022-09-11T02:44:57;7.53;;;5.07;;
35606;SDS011;21729;58.392;15.656;2022-09-11T02:47:38;8.52;;;5.47;;
35606;SDS011;21729;58.392;15.656;2022-09-11T02:50:12;7.35;;;4.88;;
35606;SDS011;21729;58.392;15.656;2022-09-11T02:52:48;8.10;;;5.25;;
35606;SDS011;21729;58.392;15.656;2022-09-11T02:55:24;7.03;;;5.05;;
35606;SDS011;21729;58.392;15.656;2022-09-11T02:57:59;6.35;;;5.30;;
35606;SDS011;21729;58.392;15.656;2022-09-11T03:00:32;7.93;;;5.50;;
35606;SDS011;21729;58.392;15.656;2022-09-11T03:03:00;8.80;;;5.68;;
35606;SDS011;21729;58.392;15.656;2022-09-11T03:05:28;8.43;;;5.28;;
35606;SDS011;21729;58.392;15.656;2022-09-11T03:07:55;7.85;;;5.47;;
35606;SDS011;21729;58.392;15.656;2022-09-11T03:10:23;8.80;;;5.30;;
35606;SDS011;21729;58.392;15.656;2022-09-11T03:12:51;8.18;;;5.18;;
35606;SDS011;21729;58.392;15.656;2022-09-11T03:15:19;8.93;;;5.80;;
35606;SDS011;21729;58.392;15.656;2022-09-11T03:17:49;6.25;;;4.90;;
35606;SDS011;21729;58.392;15.656;2022-09-11T03:20:16;6.90;;;5.47;;
35606;SDS011;21729;58.392;15.656;2022-09-11T03:22:43;8.48;;;5.28;;
35606;SDS011;21729;58.392;15.656;2022-09-11T03:25:10;6.40;;;4.90;;
35606;SDS011;21729;58.392;15.656;2022-09-11T03:27:39;10.07;;;5.13;;
35606;SDS011;21729;58.392;15.656;2022-09-11T03:30:07;7.80;;;4.80;;
35606;SDS011;21729;58.392;15.656;2022-09-11T03:32:35;6.00;;;5.00;;
35606;SDS011;21729;58.392;15.656;2022-09-11T03:35:04;8.93;;;5.20;;
35606;SDS011;21729;58.392;15.656;2022-09-11T03:37:31;7.35;;;5.43;;
35606;SDS011;21729;58.392;15.656;2022-09-11T03:40:02;7.38;;;5.57;;
35606;SDS011;21729;58.392;15.656;2022-09-11T03:42:29;8.80;;;5.68;;
35606;SDS011;21729;58.392;15.656;2022-09-11T03:44:57;9.17;;;5.20;;
35606;SDS011;21729;58.392;15.656;2022-09-11T03:47:24;7.15;;;5.70;;
35606;SDS011;21729;58.392;15.656;2022-09-11T03:49:52;9.32;;;5.40;;
35606;SDS011;21729;58.392;15.656;2022-09-11T03:52:21;8.83;;;5.17;;
35606;SDS011;21729;58.392;15.656;2022-09-11T03:54:48;7.75;;;5.35;;
35606;SDS011;21729;58.392;15.656;2022-09-11T03:57:15;7.38;;;5.40;;
35606;SDS011;21729;58.392;15.656;2022-09-11T03:59:42;7.15;;;4.88;;
35606;SDS011;21729;58.392;15.656;2022-09-11T04:02:10;6.43;;;4.90;;
35606;SDS011;21729;58.392;15.656;2022-09-11T04:04:37;6.78;;;4.90;;
35606;SDS011;21729;58.392;15.656;2022-09-11T04:07:05;7.05;;;5.10;;
35606;SDS011;21729;58.392;15.656;2022-09-11T04:09:33;9.15;;;5.47;;
35606;SDS011;21729;58.392;15.656;2022-09-11T04:12:01;8.55;;;5.15;;
35606;SDS011;21729;58.392;15.656;2022-09-11T04:14:28;6.57;;;4.77;;
35606;SDS011;21729;58.392;15.656;2022-09-11T04:16:56;5.93;;;4.70;;
35606;SDS011;21729;58.392;15.656;2022-09-11T04:19:23;7.95;;;4.93;;
35606;SDS011;21729;58.392;15.656;2022-09-11T04:21:50;6.32;;;4.75;;
35606;SDS011;21729;58.392;15.656;2022-09-11T04:24:18;6.28;;;4.68;;
35606;SDS011;21729;58.392;15.656;2022-09-11T04:26:46;6.47;;;5.00;;
35606;SDS011;21729;58.392;15.656;2022-09-11T04:29:14;7.05;;;5.00;;
35606;SDS011;21729;58.392;15.656;2022-09-11T04:31:41;6.35;;;4.72;;
35606;SDS011;21729;58.392;15.656;2022-09-11T04:34:09;7.82;;;4.78;;
35606;SDS011;21729;58.392;15.656;2022-09-11T04:36:36;7.50;;;5.10;;
35606;SDS011;21729;58.392;15.656;2022-09-11T04:39:03;9.90;;;5.00;;
35606;SDS011;21729;58.392;15.656;2022-09-11T04:41:30;8.45;;;5.40;;
35606;SDS011;21729;58.392;15.656;2022-09-11T04:43:59;7.80;;;4.65;;
35606;SDS011;21729;58.392;15.656;2022-09-11T04:46:27;7.82;;;4.93;;
35606;SDS011;21729;58.392;15.656;2022-09-11T04:48:55;6.03;;;5.00;;
35606;SDS011;21729;58.392;15.656;2022-09-11T04:51:24;8.57;;;5.20;;
35606;SDS011;21729;58.392;15.656;2022-09-11T04:53:53;8.25;;;5.00;;
35606;SDS011;21729;58.392;15.656;2022-09-11T04:56:23;7.10;;;4.80;;
35606;SDS011;21729;58.392;15.656;2022-09-11T04:58:52;6.77;;;4.67;;
35606;SDS011;21729;58.392;15.656;2022-09-11T05:01:22;6.70;;;4.40;;
35606;SDS011;21729;58.392;15.656;2022-09-11T05:03:50;7.28;;;4.38;;
35606;SDS011;21729;58.392;15.656;2022-09-11T05:06:17;6.43;;;4.50;;
35606;SDS011;21729;58.392;15.656;2022-09-11T05:08:45;7.72;;;4.78;;
35606;SDS011;21729;58.392;15.656;2022-09-11T05:11:13;7.05;;;4.55;;
35606;SDS011;21729;58.392;15.656;2022-09-11T05:13:42;5.18;;;4.20;;
35606;SDS011;21729;58.392;15.656;2022-09-11T05:16:10;6.30;;;4.60;;
35606;SDS011;21729;58.392;15.656;2022-09-11T05:18:40;8.27;;;4.60;;
35606;SDS011;21729;58.392;15.656;2022-09-11T05:21:10;7.57;;;4.55;;
35606;SDS011;21729;58.392;15.656;2022-09-11T05:23:38;6.97;;;5.00;;
35606;SDS011;21729;58.392;15.656;2022-09-11T05:26:06;5.38;;;4.75;;
35606;SDS011;21729;58.392;15.656;2022-09-11T05:28:38;5.75;;;4.70;;
35606;SDS011;21729;58.392;15.656;2022-09-11T05:31:09;7.95;;;5.00;;
35606;SDS011;21729;58.392;15.656;2022-09-11T05:33:37;5.97;;;4.80;;
35606;SDS011;21729;58.392;15.656;2022-09-11T05:36:06;6.90;;;4.50;;
35606;SDS011;21729;58.392;15.656;2022-09-11T05:38:34;6.28;;;4.80;;
35606;SDS011;21729;58.392;15.656;2022-09-11T05:41:03;6.72;;;5.20;;
35606;SDS011;21729;58.392;15.656;2022-09-11T05:43:31;7.45;;;5.07;;
35606;SDS011;21729;58.392;15.656;2022-09-11T05:45:59;6.77;;;4.60;;
35606;SDS011;21729;58.392;15.656;2022-09-11T05:48:26;8.52;;;4.68;;
35606;SDS011;21729;58.392;15.656;2022-09-11T05:50:54;6.40;;;4.60;;
35606;SDS011;21729;58.392;15.656;2022-09-11T05:53:25;6.07;;;4.15;;
35606;SDS011;21729;58.392;15.656;2022-09-11T05:55:53;5.25;;;4.43;;
35606;SDS011;21729;58.392;15.656;2022-09-11T05:58:20;7.82;;;4.68;;
35606;SDS011;21729;58.392;15.656;2022-09-11T06:00:47;8.40;;;4.78;;
35606;SDS011;21729;58.392;15.656;2022-09-11T06:03:15;6.75;;;4.53;;
35606;SDS011;21729;58.392;15.656;2022-09-11T06:05:43;6.07;;;4.80;;
35606;SDS011;21729;58.392;15.656;2022-09-11T06:08:11;5.55;;;4.55;;
35606;SDS011;21729;58.392;15.656;2022-09-11T06:10:44;4.80;;;4.30;;
35606;SDS011;21729;58.392;15.656;2022-09-11T06:13:11;7.20;;;4.50;;
35606;SDS011;21729;58.392;15.656;2022-09-11T06:15:42;5.85;;;4.50;;
35606;SDS011;21729;58.392;15.656;2022-09-11T06:18:10;7.82;;;4.65;;
35606;SDS011;21729;58.392;15.656;2022-09-11T06:20:38;5.63;;;4.20;;
35606;SDS011;21729;58.392;15.656;2022-09-11T06:23:06;6.35;;;4.15;;
35606;SDS011;21729;58.392;15.656;2022-09-11T06:25:34;7.60;;;4.38;;
35606;SDS011;21729;58.392;15.656;2022-09-11T06:28:03;5.15;;;4.07;;
35606;SDS011;21729;58.392;15.656;2022-09-11T06:30:31;5.40;;;4.15;;
35606;SDS011;21729;58.392;15.656;2022-09-11T06:32:59;6.60;;;4.32;;
35606;SDS011;21729;58.392;15.656;2022-09-11T06:35:26;6.32;;;4.32;;
35606;SDS011;21729;58.392;15.656;2022-09-11T06:37:54;5.05;;;4.10;;
35606;SDS011;21729;58.392;15.656;2022-09-11T06:40:21;5.65;;;4.28;;
35606;SDS011;21729;58.392;15.656;2022-09-11T06:42:49;6.73;;;4.10;;
35606;SDS011;21729;58.392;15.656;2022-09-11T06:45:20;4.63;;;4.03;;
35606;SDS011;21729;58.392;15.656;2022-09-11T06:47:47;7.43;;;4.47;;
35606;SDS011;21729;58.392;15.656;2022-09-11T06:50:14;4.60;;;4.10;;
35606;SDS011;21729;58.392;15.656;2022-09-11T06:52:41;4.97;;;3.80;;
35606;SDS011;21729;58.392;15.656;2022-09-11T06:55:09;6.57;;;4.05;;
35606;SDS011;21729;58.392;15.656;2022-09-11T06:57:38;4.70;;;3.90;;
35606;SDS011;21729;58.392;15.656;2022-09-11T07:00:06;7.20;;;3.90;;
35606;SDS011;21729;58.392;15.656;2022-09-11T07:02:36;4.95;;;3.80;;
35606;SDS011;21729;58.392;15.656;2022-09-11T07:05:04;7.38;;;4.05;;
35606;SDS011;21729;58.392;15.656;2022-09-11T07:07:34;6.43;;;3.70;;
35606;SDS011;21729;58.392;15.656;2022-09-11T07:10:04;5.32;;;3.72;;
35606;SDS011;21729;58.392;15.656;2022-09-11T07:12:34;7.90;;;4.23;;
35606;SDS011;21729;58.392;15.656;2022-09-11T07:15:03;5.05;;;3.70;;
35606;SDS011;21729;58.392;15.656;2022-09-11T07:17:31;5.32;;;3.90;;
35606;SDS011;21729;58.392;15.656;2022-09-11T07:19:59;5.85;;;4.07;;
35606;SDS011;21729;58.392;15.656;2022-09-11T07:22:27;5.70;;;4.30;;
35606;SDS011;21729;58.392;15.656;2022-09-11T07:24:55;5.32;;;4.00;;
35606;SDS011;21729;58.392;15.656;2022-09-11T07:27:22;7.90;;;3.87;;
35606;SDS011;21729;58.392;15.656;2022-09-11T07:29:49;5.43;;;3.70;;
35606;SDS011;21729;58.392;15.656;2022-09-11T07:32:17;5.80;;;4.03;;
35606;SDS011;21729;58.392;15.656;2022-09-11T07:34:44;6.63;;;3.93;;
35606;SDS011;21729;58.392;15.656;2022-09-11T07:37:13;5.82;;;4.05;;
35606;SDS011;21729;58.392;15.656;2022-09-11T07:39:40;6.47;;;4.15;;
35606;SDS011;21729;58.392;15.656;2022-09-11T07:42:07;5.22;;;4.03;;
35606;SDS011;21729;58.392;15.656;2022-09-11T07:44:34;5.97;;;3.90;;
35606;SDS011;21729;58.392;15.656;2022-09-11T07:47:01;5.72;;;3.97;;
35606;SDS011;21729;58.392;15.656;2022-09-11T07:49:29;7.85;;;3.78;;
35606;SDS011;21729;58.392;15.656;2022-09-11T07:51:56;5.00;;;3.90;;
35606;SDS011;21729;58.392;15.656;2022-09-11T07:54:25;6.25;;;3.95;;
35606;SDS011;21729;58.392;15.656;2022-09-11T07:56:53;7.47;;;3.75;;
35606;SDS011;21729;58.392;15.656;2022-09-11T07:59:20;7.63;;;3.80;;
35606;SDS011;21729;58.392;15.656;2022-09-11T08:01:47;7.45;;;3.97;;
35606;SDS011;21729;58.392;15.656;2022-09-11T08:04:15;7.80;;;3.88;;
35606;SDS011;21729;58.392;15.656;2022-09-11T08:06:43;4.95;;;3.95;;
35606;SDS011;21729;58.392;15.656;2022-09-11T08:09:11;5.82;;;3.97;;
35606;SDS011;21729;58.392;15.656;2022-09-11T08:11:42;7.03;;;4.17;;
35606;SDS011;21729;58.392;15.656;2022-09-11T08:14:12;6.28;;;4.20;;
35606;SDS011;21729;58.392;15.656;2022-09-11T08:16:43;6.35;;;3.83;;
35606;SDS011;21729;58.392;15.656;2022-09-11T08:19:13;6.05;;;4.18;;
35606;SDS011;21729;58.392;15.656;2022-09-11T08:21:42;5.75;;;3.92;;
35606;SDS011;21729;58.392;15.656;2022-09-11T08:24:11;6.90;;;3.90;;
35606;SDS011;21729;58.392;15.656;2022-09-11T08:26:40;7.60;;;4.33;;
35606;SDS011;21729;58.392;15.656;2022-09-11T08:29:07;6.72;;;4.00;;
35606;SDS011;21729;58.392;15.656;2022-09-11T08:31:34;6.55;;;4.32;;
35606;SDS011;21729;58.392;15.656;2022-09-11T08:34:02;4.88;;;3.83;;
35606;SDS011;21729;58.392;15.656;2022-09-11T08:36:29;5.82;;;3.65;;
35606;SDS011;21729;58.392;15.656;2022-09-11T08:38:57;4.50;;;3.90;;
35606;SDS011;21729;58.392;15.656;2022-09-11T08:41:28;6.63;;;3.90;;
35606;SDS011;21729;58.392;15.656;2022-09-11T08:44:03;5.88;;;4.35;;
35606;SDS011;21729;58.392;15.656;2022-09-11T08:46:39;4.63;;;3.80;;
35606;SDS011;21729;58.392;15.656;2022-09-11T08:49:09;4.47;;;3.70;;
35606;SDS011;21729;58.392;15.656;2022-09-11T08:51:44;5.78;;;3.65;;
35606;SDS011;21729;58.392;15.656;2022-09-11T08:54:17;5.82;;;4.00;;
35606;SDS011;21729;58.392;15.656;2022-09-11T08:56:52;6.10;;;3.88;;
35606;SDS011;21729;58.392;15.656;2022-09-11T08:59:27;5.55;;;3.90;;
35606;SDS011;21729;58.392;15.656;2022-09-11T09:02:09;4.93;;;3.83;;
35606;SDS011;21729;58.392;15.656;2022-09-11T09:04:50;4.63;;;3.70;;
35606;SDS011;21729;58.392;15.656;2022-09-11T09:07:41;4.60;;;3.50;;
35606;SDS011;21729;58.392;15.656;2022-09-11T09:10:18;3.58;;;3.28;;
35606;SDS011;21729;58.392;15.656;2022-09-11T09:12:57;5.63;;;3.40;;
35606;SDS011;21729;58.392;15.656;2022-09-11T09:15:39;4.22;;;3.20;;
35606;SDS011;21729;58.392;15.656;2022-09-11T09:18:13;3.60;;;3.20;;
35606;SDS011;21729;58.392;15.656;2022-09-11T09:20:45;6.53;;;3.33;;
35606;SDS011;21729;58.392;15.656;2022-09-11T09:23:22;4.57;;;3.20;;
35606;SDS011;21729;58.392;15.656;2022-09-11T09:25:53;4.82;;;3.17;;
35606;SDS011;21729;58.392;15.656;2022-09-11T09:28:22;4.30;;;3.20;;
35606;SDS011;21729;58.392;15.656;2022-09-11T09:30:52;3.58;;;3.20;;
35606;SDS011;21729;58.392;15.656;2022-09-11T09:33:25;4.75;;;3.40;;
35606;SDS011;21729;58.392;15.656;2022-09-11T09:35:56;3.50;;;3.20;;
35606;SDS011;21729;58.392;15.656;2022-09-11T09:38:26;4.47;;;3.60;;
35606;SDS011;21729;58.392;15.656;2022-09-11T09:41:00;5.63;;;3.42;;
35606;SDS011;21729;58.392;15.656;2022-09-11T09:43:35;4.20;;;3.80;;
35606;SDS011;21729;58.392;15.656;2022-09-11T09:46:14;4.10;;;3.70;;
35606;SDS011;21729;58.392;15.656;2022-09-11T09:48:48;4.28;;;3.88;;
35606;SDS011;21729;58.392;15.656;2022-09-11T09:51:16;5.03;;;3.80;;
35606;SDS011;21729;58.392;15.656;2022-09-11T09:53:44;6.00;;;4.05;;
35606;SDS011;21729;58.392;15.656;2022-09-11T09:56:15;5.85;;;3.95;;
35606;SDS011;21729;58.392;15.656;2022-09-11T09:58:47;7.07;;;4.03;;
35606;SDS011;21729;58.392;15.656;2022-09-11T10:04:16;7.30;;;3.97;;
35606;SDS011;21729;58.392;15.656;2022-09-11T10:06:46;6.67;;;3.90;;
35606;SDS011;21729;58.392;15.656;2022-09-11T10:09:23;6.30;;;4.13;;
35606;SDS011;21729;58.392;15.656;2022-09-11T10:11:53;6.10;;;4.10;;
35606;SDS011;21729;58.392;15.656;2022-09-11T10:14:22;5.05;;;4.00;;
35606;SDS011;21729;58.392;15.656;2022-09-11T10:16:52;7.20;;;4.20;;
35606;SDS011;21729;58.392;15.656;2022-09-11T10:19:33;7.22;;;3.92;;
35606;SDS011;21729;58.392;15.656;2022-09-11T10:25:03;9.02;;;3.65;;
35606;SDS011;21729;58.392;15.656;2022-09-11T10:27:44;4.60;;;3.60;;
35606;SDS011;21729;58.392;15.656;2022-09-11T10:30:24;4.13;;;3.40;;
35606;SDS011;21729;58.392;15.656;2022-09-11T10:32:55;5.90;;;3.40;;
35606;SDS011;21729;58.392;15.656;2022-09-11T10:35:25;6.78;;;3.20;;
35606;SDS011;21729;58.392;15.656;2022-09-11T10:37:58;5.25;;;2.92;;
35606;SDS011;21729;58.392;15.656;2022-09-11T10:40:29;5.40;;;3.08;;
35606;SDS011;21729;58.392;15.656;2022-09-11T10:42:56;7.47;;;3.00;;
35606;SDS011;21729;58.392;15.656;2022-09-11T10:45:23;4.75;;;3.35;;
35606;SDS011;21729;58.392;15.656;2022-09-11T10:47:51;5.80;;;3.05;;
35606;SDS011;21729;58.392;15.656;2022-09-11T10:50:31;5.63;;;3.20;;
35606;SDS011;21729;58.392;15.656;2022-09-11T10:53:02;5.57;;;3.10;;
35606;SDS011;21729;58.392;15.656;2022-09-11T10:55:41;7.00;;;3.20;;
35606;SDS011;21729;58.392;15.656;2022-09-11T10:58:15;8.57;;;3.35;;
35606;SDS011;21729;58.392;15.656;2022-09-11T11:00:44;8.70;;;3.42;;
35606;SDS011;21729;58.392;15.656;2022-09-11T11:03:15;5.32;;;3.47;;
35606;SDS011;21729;58.392;15.656;2022-09-11T11:05:49;5.45;;;3.80;;
35606;SDS011;21729;58.392;15.656;2022-09-11T11:08:28;6.75;;;3.85;;
35606;SDS011;21729;58.392;15.656;2022-09-11T11:11:15;4.60;;;3.60;;
35606;SDS011;21729;58.392;15.656;2022-09-11T11:13:58;5.95;;;3.83;;
35606;SDS011;21729;58.392;15.656;2022-09-11T11:16:45;4.33;;;3.37;;
35606;SDS011;21729;58.392;15.656;2022-09-11T11:19:35;4.60;;;3.45;;
35606;SDS011;21729;58.392;15.656;2022-09-11T11:22:16;6.47;;;3.90;;
35606;SDS011;21729;58.392;15.656;2022-09-11T11:24:56;3.53;;;3.03;;
35606;SDS011;21729;58.392;15.656;2022-09-11T11:27:41;6.90;;;3.00;;
35606;SDS011;21729;58.392;15.656;2022-09-11T11:30:20;4.95;;;3.22;;
35606;SDS011;21729;58.392;15.656;2022-09-11T11:35:57;5.70;;;3.00;;
35606;SDS011;21729;58.392;15.656;2022-09-11T11:38:32;5.83;;;2.90;;
35606;SDS011;21729;58.392;15.656;2022-09-11T11:41:07;5.75;;;2.90;;
35606;SDS011;21729;58.392;15.656;2022-09-11T11:43:38;5.30;;;3.05;;
35606;SDS011;21729;58.392;15.656;2022-09-11T11:46:10;3.80;;;2.97;;
35606;SDS011;21729;58.392;15.656;2022-09-11T11:48:43;4.68;;;2.78;;
35606;SDS011;21729;58.392;15.656;2022-09-11T11:51:17;3.78;;;2.65;;
35606;SDS011;21729;58.392;15.656;2022-09-11T11:53:50;2.72;;;2.50;;
35606;SDS011;21729;58.392;15.656;2022-09-11T11:56:25;5.30;;;2.50;;
35606;SDS011;21729;58.392;15.656;2022-09-11T11:59:01;3.27;;;2.70;;
35606;SDS011;21729;58.392;15.656;2022-09-11T12:01:37;3.58;;;2.40;;
35606;SDS011;21729;58.392;15.656;2022-09-11T12:04:11;4.85;;;2.70;;
35606;SDS011;21729;58.392;15.656;2022-09-11T12:06:49;5.30;;;2.53;;
35606;SDS011;21729;58.392;15.656;2022-09-11T12:09:19;4.55;;;2.80;;
35606;SDS011;21729;58.392;15.656;2022-09-11T12:11:48;5.80;;;3.60;;
35606;SDS011;21729;58.392;15.656;2022-09-11T12:14:25;5.32;;;3.40;;
35606;SDS011;21729;58.392;15.656;2022-09-11T12:16:56;5.40;;;3.17;;
35606;SDS011;21729;58.392;15.656;2022-09-11T12:19:48;3.03;;;2.72;;
35606;SDS011;21729;58.392;15.656;2022-09-11T12:22:40;4.03;;;2.50;;
35606;SDS011;21729;58.392;15.656;2022-09-11T12:28:18;3.58;;;2.47;;
35606;SDS011;21729;58.392;15.656;2022-09-11T12:30:54;3.40;;;2.22;;
35606;SDS011;21729;58.392;15.656;2022-09-11T12:39:21;4.13;;;2.28;;
35606;SDS011;21729;58.392;15.656;2022-09-11T12:42:04;3.08;;;2.10;;
35606;SDS011;21729;58.392;15.656;2022-09-11T12:48:02;3.53;;;2.35;;
35606;SDS011;21729;58.392;15.656;2022-09-11T12:50:31;4.90;;;2.60;;
35606;SDS011;21729;58.392;15.656;2022-09-11T12:52:59;4.25;;;2.38;;
35606;SDS011;21729;58.392;15.656;2022-09-11T12:55:29;3.80;;;2.30;;
35606;SDS011;21729;58.392;15.656;2022-09-11T12:57:59;5.75;;;2.60;;
35606;SDS011;21729;58.392;15.656;2022-09-11T13:00:33;3.53;;;2.50;;
35606;SDS011;21729;58.392;15.656;2022-09-11T13:03:03;3.93;;;2.73;;
35606;SDS011;21729;58.392;15.656;2022-09-11T13:05:40;3.05;;;2.53;;
35606;SDS011;21729;58.392;15.656;2022-09-11T13:08:13;5.82;;;2.88;;
35606;SDS011;21729;58.392;15.656;2022-09-11T13:10:46;3.53;;;2.83;;
35606;SDS011;21729;58.392;15.656;2022-09-11T13:16:21;4.20;;;2.90;;
35606;SDS011;21729;58.392;15.656;2022-09-11T13:18:50;3.47;;;2.60;;
35606;SDS011;21729;58.392;15.656;2022-09-11T13:21:22;3.97;;;2.50;;
35606;SDS011;21729;58.392;15.656;2022-09-11T13:23:50;5.15;;;2.60;;
35606;SDS011;21729;58.392;15.656;2022-09-11T13:26:21;5.30;;;2.90;;
35606;SDS011;21729;58.392;15.656;2022-09-11T13:28:51;3.75;;;2.30;;
35606;SDS011;21729;58.392;15.656;2022-09-11T13:31:25;4.07;;;2.63;;
35606;SDS011;21729;58.392;15.656;2022-09-11T13:33:58;3.65;;;2.72;;
35606;SDS011;21729;58.392;15.656;2022-09-11T13:36:26;3.10;;;2.58;;
35606;SDS011;21729;58.392;15.656;2022-09-11T13:38:54;4.70;;;3.15;;
35606;SDS011;21729;58.392;15.656;2022-09-11T13:41:24;3.97;;;2.85;;
35606;SDS011;21729;58.392;15.656;2022-09-11T13:43:54;4.60;;;2.92;;
35606;SDS011;21729;58.392;15.656;2022-09-11T13:46:25;4.85;;;3.05;;
35606;SDS011;21729;58.392;15.656;2022-09-11T13:48:56;5.80;;;3.77;;
35606;SDS011;21729;58.392;15.656;2022-09-11T13:51:40;4.82;;;3.10;;
35606;SDS011;21729;58.392;15.656;2022-09-11T13:54:11;4.07;;;3.00;;
35606;SDS011;21729;58.392;15.656;2022-09-11T13:56:43;4.35;;;3.20;;
35606;SDS011;21729;58.392;15.656;2022-09-11T14:02:05;5.72;;;3.20;;
35606;SDS011;21729;58.392;15.656;2022-09-11T14:04:59;5.55;;;3.78;;
35606;SDS011;21729;58.392;15.656;2022-09-11T14:07:39;5.13;;;4.40;;
35606;SDS011;21729;58.392;15.656;2022-09-11T14:10:14;3.50;;;3.00;;
35606;SDS011;21729;58.392;15.656;2022-09-11T14:12:45;5.18;;;3.00;;
35606;SDS011;21729;58.392;15.656;2022-09-11T14:15:18;3.40;;;2.90;;
35606;SDS011;21729;58.392;15.656;2022-09-11T14:17:50;4.22;;;2.95;;
35606;SDS011;21729;58.392;15.656;2022-09-11T14:20:18;5.22;;;3.20;;
35606;SDS011;21729;58.392;15.656;2022-09-11T14:22:47;4.90;;;3.20;;
35606;SDS011;21729;58.392;15.656;2022-09-11T14:25:21;5.45;;;3.60;;
35606;SDS011;21729;58.392;15.656;2022-09-11T14:27:49;4.32;;;3.30;;
35606;SDS011;21729;58.392;15.656;2022-09-11T14:30:23;7.22;;;3.85;;
35606;SDS011;21729;58.392;15.656;2022-09-11T14:33:13;5.75;;;3.50;;
35606;SDS011;21729;58.392;15.656;2022-09-11T14:35:48;5.32;;;3.65;;
35606;SDS011;21729;58.392;15.656;2022-09-11T14:38:18;6.05;;;3.65;;
35606;SDS011;21729;58.392;15.656;2022-09-11T14:40:49;5.28;;;3.80;;
35606;SDS011;21729;58.392;15.656;2022-09-11T14:43:22;5.77;;;3.97;;
35606;SDS011;21729;58.392;15.656;2022-09-11T14:45:55;6.18;;;3.60;;
35606;SDS011;21729;58.392;15.656;2022-09-11T14:48:25;6.43;;;4.17;;
35606;SDS011;21729;58.392;15.656;2022-09-11T14:50:52;5.68;;;4.13;;
35606;SDS011;21729;58.392;15.656;2022-09-11T14:53:22;7.40;;;3.88;;
35606;SDS011;21729;58.392;15.656;2022-09-11T14:55:53;5.65;;;3.90;;
35606;SDS011;21729;58.392;15.656;2022-09-11T14:58:22;6.53;;;4.35;;
35606;SDS011;21729;58.392;15.656;2022-09-11T15:00:49;5.57;;;4.18;;
35606;SDS011;21729;58.392;15.656;2022-09-11T15:03:16;5.25;;;3.92;;
35606;SDS011;21729;58.392;15.656;2022-09-11T15:05:45;5.45;;;3.95;;
35606;SDS011;21729;58.392;15.656;2022-09-11T15:08:16;6.40;;;4.07;;
35606;SDS011;21729;58.392;15.656;2022-09-11T15:10:43;6.28;;;4.10;;
35606;SDS011;21729;58.392;15.656;2022-09-11T15:13:11;5.82;;;3.85;;
35606;SDS011;21729;58.392;15.656;2022-09-11T15:15:38;5.50;;;4.15;;
35606;SDS011;21729;58.392;15.656;2022-09-11T15:18:06;5.90;;;3.90;;
35606;SDS011;21729;58.392;15.656;2022-09-11T15:20:33;7.30;;;3.80;;
35606;SDS011;21729;58.392;15.656;2022-09-11T15:23:02;4.93;;;3.63;;
35606;SDS011;21729;58.392;15.656;2022-09-11T15:25:30;5.07;;;3.88;;
35606;SDS011;21729;58.392;15.656;2022-09-11T15:27:57;6.90;;;3.78;;
35606;SDS011;21729;58.392;15.656;2022-09-11T15:30:25;4.43;;;3.43;;